createdAt,value
2022-09-05T00:00:26.659Z,1.92
2022-09-05T00:03:07.893Z,2.33
2022-09-05T00:06:01.975Z,2.10
2022-09-05T00:08:47.388Z,2.58
2022-09-05T00:11:43.106Z,1.95
2022-09-05T00:15:15.097Z,2.10
2022-09-05T00:18:04.934Z,2.20
2022-09-05T00:24:31.280Z,2.20
2022-09-05T00:24:37.607Z,2.30
2022-09-05T00:26:50.280Z,2.20
2022-09-05T00:30:52.323Z,2.00
2022-09-05T00:32:33.232Z,2.35
2022-09-05T00:35:13.442Z,2.15
2022-09-05T00:37:46.887Z,2.10
2022-09-05T00:40:28.396Z,2.10
2022-09-05T00:43:01.314Z,2.20
2022-09-05T00:45:36.534Z,2.15
2022-09-05T00:48:19.455Z,2.05
2022-09-05T00:51:14.488Z,1.85
2022-09-05T00:53:56.930Z,2.17
2022-09-05T00:56:46.820Z,2.20
2022-09-05T00:59:59.560Z,2.30
2022-09-05T01:02:52.129Z,2.20
2022-09-05T01:05:37.456Z,2.08
2022-09-05T01:08:23.671Z,2.50
2022-09-05T01:10:59.610Z,2.58
2022-09-05T01:13:39.842Z,2.10
2022-09-05T01:16:17.370Z,2.17
2022-09-05T01:18:55.386Z,2.40
2022-09-05T01:22:05.726Z,2.30
2022-09-05T01:24:56.387Z,2.13
2022-09-05T01:28:30.898Z,2.45
2022-09-05T01:30:44.541Z,2.30
2022-09-05T01:33:25.265Z,2.58
2022-09-05T01:36:14.156Z,2.50
2022-09-05T01:39:53.577Z,2.70
2022-09-05T01:41:49.370Z,2.42
2022-09-05T01:44:31.431Z,2.30
2022-09-05T01:47:29.617Z,2.67
2022-09-05T01:50:10.285Z,2.58
2022-09-05T01:53:02.194Z,2.67
2022-09-05T01:56:04.926Z,2.53
2022-09-05T01:58:49.821Z,2.58
2022-09-05T02:01:32.892Z,2.50
2022-09-05T02:04:29.172Z,2.30
2022-09-05T02:07:20.044Z,2.58
2022-09-05T02:10:25.304Z,2.30
2022-09-05T02:13:03.533Z,2.20
2022-09-05T02:15:43.170Z,2.80
2022-09-05T02:18:44.215Z,2.30
2022-09-05T02:21:22.600Z,2.17
2022-09-05T02:24:03.734Z,2.38
2022-09-05T02:26:41.160Z,2.40
2022-09-05T02:29:29.417Z,2.50
2022-09-05T02:32:10.230Z,2.90
2022-09-05T02:34:46.216Z,2.60
2022-09-05T02:38:15.613Z,2.50
2022-09-05T02:45:07.048Z,2.35
2022-09-05T02:45:10.559Z,2.40
2022-09-05T02:46:10.715Z,2.60
2022-09-05T02:48:51.071Z,3.17
2022-09-05T02:57:23.388Z,2.60
2022-09-05T02:57:32.962Z,2.35
2022-09-05T02:58:07.380Z,2.20
2022-09-05T03:00:23.238Z,2.17
2022-09-05T03:03:20.802Z,2.30
2022-09-05T03:05:58.004Z,2.35
2022-09-05T03:08:54.406Z,2.30
2022-09-05T03:12:29.418Z,3.13
2022-09-05T03:15:32.307Z,2.63
2022-09-05T03:18:49.618Z,3.17
2022-09-05T03:21:48.683Z,2.92
2022-09-05T03:24:55.889Z,2.45
2022-09-05T03:28:04.341Z,2.20
2022-09-05T03:30:52.719Z,2.95
2022-09-05T03:33:47.517Z,2.22
2022-09-05T03:36:43.123Z,2.75
2022-09-05T03:39:48.684Z,3.78
2022-09-05T03:42:48.870Z,2.53
2022-09-05T03:45:51.549Z,2.38
2022-09-05T03:48:44.381Z,3.42
2022-09-05T03:57:08.006Z,2.78
2022-09-05T03:57:23.975Z,2.70
2022-09-05T03:58:22.653Z,2.75
2022-09-05T04:01:35.815Z,3.10
2022-09-05T04:08:09.673Z,2.95
2022-09-05T04:08:26.844Z,2.78
2022-09-05T04:09:52.140Z,3.60
2022-09-05T04:12:29.864Z,3.28
2022-09-05T04:15:03.247Z,3.47
2022-09-05T04:17:37.536Z,3.22
2022-09-05T04:20:13.918Z,3.33
2022-09-05T04:23:09.400Z,3.50
2022-09-05T04:25:58.507Z,4.35
2022-09-05T04:28:54.286Z,3.50
2022-09-05T04:31:36.084Z,3.75
2022-09-05T04:34:17.844Z,3.28
2022-09-05T04:36:48.793Z,3.47
2022-09-05T04:39:28.030Z,3.60
2022-09-05T04:42:03.794Z,3.15
2022-09-05T04:44:38.822Z,3.13
2022-09-05T04:47:15.597Z,3.80
2022-09-05T04:49:49.620Z,2.97
2022-09-05T04:52:43.686Z,3.00
2022-09-05T04:55:14.906Z,3.40
2022-09-05T04:57:50.602Z,3.00
2022-09-05T05:05:58.220Z,3.00
2022-09-05T05:06:14.660Z,2.63
2022-09-05T05:06:43.813Z,2.75
2022-09-05T05:09:08.585Z,2.85
2022-09-05T05:17:58.896Z,3.60
2022-09-05T05:17:59.476Z,3.55
2022-09-05T05:18:08.631Z,3.90
2022-09-05T05:20:42.529Z,4.30
2022-09-05T05:23:17.188Z,4.13
2022-09-05T05:25:51.214Z,3.75
2022-09-05T05:28:28.101Z,3.92
2022-09-05T05:31:08.379Z,4.25
2022-09-05T05:33:40.290Z,3.90
2022-09-05T05:36:16.149Z,4.15
2022-09-05T05:38:50.725Z,4.15
2022-09-05T05:41:26.381Z,5.55
2022-09-05T05:43:55.844Z,5.95
2022-09-05T05:46:35.015Z,4.80
2022-09-05T05:49:27.709Z,4.68
2022-09-05T05:52:40.891Z,5.28
2022-09-05T05:55:52.487Z,4.93
2022-09-05T05:58:35.163Z,4.78
2022-09-05T06:01:45.396Z,5.13
2022-09-05T06:04:49.045Z,4.15
2022-09-05T06:07:28.863Z,3.13
2022-09-05T06:14:49.381Z,6.38
2022-09-05T06:14:57.998Z,6.50
2022-09-05T06:17:06.318Z,5.20
2022-09-05T06:22:04.550Z,5.65
2022-09-05T06:23:53.135Z,6.20
2022-09-05T06:26:54.888Z,5.65
2022-09-05T06:29:38.432Z,7.13
2022-09-05T06:32:32.626Z,7.15
2022-09-05T06:35:23.186Z,6.93
2022-09-05T06:38:06.114Z,8.02
2022-09-05T06:40:43.358Z,8.70
2022-09-05T06:43:31.295Z,7.70
2022-09-05T06:46:11.763Z,7.45
2022-09-05T06:49:30.856Z,7.30
2022-09-05T06:52:28.626Z,7.93
2022-09-05T06:55:40.391Z,8.18
2022-09-05T06:58:44.674Z,7.03
2022-09-05T07:01:16.484Z,7.07
2022-09-05T07:04:11.242Z,7.63
2022-09-05T07:07:07.976Z,8.65
2022-09-05T07:09:52.190Z,7.63
2022-09-05T07:12:28.638Z,7.65
2022-09-05T07:15:08.932Z,7.72
2022-09-05T07:18:09.184Z,7.68
2022-09-05T07:21:15.939Z,7.60
2022-09-05T07:24:09.966Z,6.72
2022-09-05T07:26:52.506Z,6.35
2022-09-05T07:29:30.403Z,6.32
2022-09-05T07:32:00.702Z,6.05
2022-09-05T07:34:31.369Z,7.30
2022-09-05T07:37:14.356Z,6.68
2022-09-05T07:39:53.645Z,6.97
2022-09-05T07:42:27.337Z,6.75
2022-09-05T07:44:59.377Z,7.53
2022-09-05T07:47:32.549Z,6.85
2022-09-05T07:52:14.057Z,7.95
2022-09-05T07:57:00.911Z,8.30
2022-09-05T07:57:10.877Z,7.72
2022-09-05T07:58:49.698Z,7.07
2022-09-05T08:01:21.302Z,7.40
2022-09-05T08:03:55.687Z,6.55
2022-09-05T08:07:42.367Z,6.60
2022-09-05T08:10:08.810Z,6.95
2022-09-05T08:12:27.722Z,6.28
2022-09-05T08:15:05.912Z,6.63
2022-09-05T08:17:54.504Z,6.57
2022-09-05T08:20:32.643Z,6.07
2022-09-05T08:23:09.343Z,5.57
2022-09-05T08:25:56.562Z,6.13
2022-09-05T08:28:39.721Z,6.53
2022-09-05T08:31:11.489Z,6.65
2022-09-05T08:33:40.826Z,5.85
2022-09-05T08:36:19.467Z,5.80
2022-09-05T08:38:50.380Z,5.90
2022-09-05T08:41:49.468Z,7.28
2022-09-05T08:46:43.267Z,7.03
2022-09-05T08:47:25.718Z,6.55
2022-09-05T08:50:15.755Z,6.28
2022-09-05T08:52:56.272Z,6.25
2022-09-05T08:55:35.579Z,6.18
2022-09-05T08:58:18.190Z,6.60
2022-09-05T09:01:00.137Z,6.65
2022-09-05T09:03:43.934Z,5.85
2022-09-05T09:06:52.656Z,5.63
2022-09-05T09:09:47.931Z,6.03
2022-09-05T09:12:39.522Z,5.30
2022-09-05T09:15:19.882Z,5.22
2022-09-05T09:17:51.173Z,5.00
2022-09-05T09:20:30.895Z,4.72
2022-09-05T09:23:03.805Z,4.22
2022-09-05T09:25:39.730Z,4.65
2022-09-05T09:28:50.651Z,4.15
2022-09-05T09:31:41.801Z,4.70
2022-09-05T09:34:33.218Z,3.67
2022-09-05T09:37:54.356Z,3.70
2022-09-05T09:40:34.662Z,3.92
2022-09-05T09:43:09.630Z,3.90
2022-09-05T09:45:59.354Z,3.53
2022-09-05T09:49:02.818Z,3.28
2022-09-05T09:51:50.352Z,2.60
2022-09-05T09:54:54.372Z,2.60
2022-09-05T09:58:09.710Z,2.90
2022-09-05T10:00:51.140Z,2.40
2022-09-05T10:07:59.500Z,2.40
2022-09-05T10:10:49.408Z,2.47
2022-09-05T10:11:00.444Z,2.00
2022-09-05T10:13:26.772Z,2.00
2022-09-05T10:16:39.831Z,2.10
2022-09-05T10:22:54.374Z,1.92
2022-09-05T10:25:31.726Z,2.20
2022-09-05T10:28:09.051Z,1.80
2022-09-05T10:32:16.357Z,1.65
2022-09-05T10:35:14.310Z,1.80
2022-09-05T10:36:30.255Z,1.80
2022-09-05T10:39:17.510Z,1.80
2022-09-05T10:41:50.976Z,1.67
2022-09-05T10:44:29.191Z,1.65
2022-09-05T10:47:10.788Z,1.75
2022-09-05T10:49:43.499Z,1.90
2022-09-05T10:52:19.049Z,1.70
2022-09-05T10:55:15.272Z,1.70
2022-09-05T10:57:59.408Z,2.25
2022-09-05T11:02:19.199Z,1.75
2022-09-05T11:03:50.650Z,1.50
2022-09-05T11:06:25.138Z,1.60
2022-09-05T11:09:08.418Z,1.55
2022-09-05T11:11:46.095Z,1.92
2022-09-05T11:14:36.899Z,1.83
2022-09-05T11:17:15.095Z,1.65
2022-09-05T11:19:46.373Z,1.58
2022-09-05T11:22:23.532Z,1.70
2022-09-05T11:24:57.340Z,1.70
2022-09-05T11:27:35.368Z,1.63
2022-09-05T11:30:07.892Z,1.45
2022-09-05T11:39:42.491Z,1.50
2022-09-05T11:39:55.851Z,1.70
2022-09-05T11:39:57.302Z,1.23
2022-09-05T11:42:17.468Z,1.83
2022-09-05T11:44:58.226Z,1.65
2022-09-05T11:48:01.875Z,1.42
2022-09-05T11:50:54.628Z,1.40
2022-09-05T11:53:50.345Z,1.02
2022-09-05T11:56:49.535Z,1.10
2022-09-05T11:59:33.069Z,1.23
2022-09-05T12:02:37.695Z,1.17
2022-09-05T12:05:50.129Z,1.25
2022-09-05T12:08:29.857Z,1.20
2022-09-05T12:11:09.939Z,1.20
2022-09-05T12:13:46.747Z,2.10
2022-09-05T12:16:37.587Z,1.40
2022-09-05T12:19:20.159Z,1.30
2022-09-05T12:22:10.138Z,1.50
2022-09-05T12:25:24.839Z,1.27
2022-09-05T12:27:47.406Z,1.75
2022-09-05T12:30:32.808Z,1.35
2022-09-05T12:40:28.688Z,1.30
2022-09-05T12:40:59.533Z,1.35
2022-09-05T12:42:10.668Z,1.30
2022-09-05T12:42:40.063Z,1.40
2022-09-05T12:45:37.145Z,1.30
2022-09-05T12:48:13.221Z,1.02
2022-09-05T12:50:49.106Z,1.15
2022-09-05T12:53:20.411Z,1.20
2022-09-05T12:57:12.539Z,1.10
2022-09-05T13:03:03.726Z,1.20
2022-09-05T13:03:13.476Z,1.80
2022-09-05T13:04:32.443Z,1.77
2022-09-05T13:07:09.806Z,1.10
2022-09-05T13:11:13.832Z,1.20
2022-09-05T13:14:56.584Z,1.50
2022-09-05T13:15:36.379Z,1.40
2022-09-05T13:18:10.582Z,1.23
2022-09-05T13:20:45.711Z,1.40
2022-09-05T13:23:21.822Z,1.15
2022-09-05T13:25:58.402Z,1.20
2022-09-05T13:28:35.268Z,1.52
2022-09-05T13:37:55.709Z,1.38
2022-09-05T13:38:04.721Z,1.45
2022-09-05T13:38:05.949Z,1.45
2022-09-05T13:39:51.892Z,1.30
2022-09-05T13:42:25.795Z,1.20
2022-09-05T13:44:58.419Z,1.40
2022-09-05T13:47:51.428Z,1.30
2022-09-05T13:50:26.483Z,1.23
2022-09-05T13:53:05.325Z,1.40
2022-09-05T13:55:42.269Z,1.33
2022-09-05T13:58:18.331Z,1.15
2022-09-05T14:01:24.676Z,1.40
2022-09-05T14:07:51.731Z,1.10
2022-09-05T14:11:01.819Z,1.40
2022-09-05T14:13:40.997Z,1.40
2022-09-05T14:16:15.839Z,1.60
2022-09-05T14:19:02.594Z,1.33
2022-09-05T14:21:36.863Z,1.30
2022-09-05T14:24:13.736Z,1.20
2022-09-05T14:26:46.915Z,1.50
2022-09-05T14:29:23.734Z,1.35
2022-09-05T14:37:36.765Z,1.40
2022-09-05T14:37:53.762Z,1.30
2022-09-05T14:38:13.299Z,0.95
2022-09-05T14:41:26.079Z,1.20
2022-09-05T14:44:41.618Z,1.23
2022-09-05T14:47:36.276Z,1.20
2022-09-05T14:50:21.230Z,1.35
2022-09-05T14:56:09.713Z,1.13
2022-09-05T15:02:45.214Z,1.35
2022-09-05T15:02:54.724Z,1.13
2022-09-05T15:04:44.664Z,1.10
2022-09-05T15:07:20.385Z,1.08
2022-09-05T15:12:14.823Z,1.27
2022-09-05T15:13:00.659Z,1.20
2022-09-05T15:15:35.909Z,1.40
2022-09-05T15:18:09.318Z,1.35
2022-09-05T15:20:40.101Z,1.15
2022-09-05T15:23:16.273Z,1.10
2022-09-05T15:25:48.593Z,1.20
2022-09-05T15:28:22.911Z,1.30
2022-09-05T15:30:59.971Z,1.20
2022-09-05T15:33:32.710Z,1.20
2022-09-05T15:36:03.187Z,1.30
2022-09-05T15:38:38.736Z,1.10
2022-09-05T15:41:26.319Z,1.40
2022-09-05T15:44:00.113Z,1.50
2022-09-05T15:46:42.393Z,1.20
2022-09-05T15:49:23.592Z,1.20
2022-09-05T15:51:53.779Z,1.30
2022-09-05T15:54:37.429Z,1.40
2022-09-05T15:57:17.682Z,0.95
2022-09-05T15:59:53.428Z,1.42
2022-09-05T16:02:25.527Z,1.30
2022-09-05T16:10:29.713Z,1.17
2022-09-05T16:10:37.633Z,1.42
2022-09-05T16:11:58.150Z,1.60
2022-09-05T16:14:22.934Z,1.20
2022-09-05T16:23:20.838Z,1.25
2022-09-05T16:23:30.680Z,1.20
2022-09-05T16:23:31.434Z,1.10
2022-09-05T16:25:38.172Z,1.20
2022-09-05T16:28:11.999Z,1.15
2022-09-05T16:30:42.083Z,1.30
2022-09-05T16:33:17.507Z,1.27
2022-09-05T16:35:55.378Z,1.02
2022-09-05T16:38:49.087Z,1.13
2022-09-05T16:41:24.649Z,1.40
2022-09-05T16:43:57.631Z,1.00
2022-09-05T16:46:32.488Z,1.20
2022-09-05T16:49:12.134Z,1.20
2022-09-05T16:51:45.611Z,1.10
2022-09-05T16:54:30.113Z,1.35
2022-09-05T16:57:04.331Z,1.10
2022-09-05T16:59:35.938Z,1.10
2022-09-05T17:02:11.072Z,1.40
2022-09-05T17:05:04.059Z,1.38
2022-09-05T17:08:02.978Z,1.30
2022-09-05T17:10:41.947Z,1.55
2022-09-05T17:13:14.244Z,1.30
2022-09-05T17:15:52.916Z,1.30
2022-09-05T17:18:26.865Z,1.35
2022-09-05T17:21:01.696Z,1.50
2022-09-05T17:28:17.702Z,1.33
2022-09-05T17:29:25.035Z,1.67
2022-09-05T17:32:46.985Z,1.20
2022-09-05T17:35:20.314Z,1.30
2022-09-05T17:38:13.929Z,1.48
2022-09-05T17:41:06.592Z,1.08
2022-09-05T17:43:40.115Z,1.30
2022-09-05T17:46:16.991Z,1.30
2022-09-05T17:49:18.922Z,1.50
2022-09-05T17:52:23.334Z,1.58
2022-09-05T17:54:54.964Z,1.40
2022-09-05T17:57:42.411Z,1.60
2022-09-05T18:00:59.733Z,1.52
2022-09-05T18:04:17.825Z,1.65
2022-09-05T18:06:59.798Z,1.35
2022-09-05T18:10:00.500Z,1.70
2022-09-05T18:13:13.091Z,1.60
2022-09-05T18:16:10.615Z,1.70
2022-09-05T18:19:28.632Z,1.52
2022-09-05T18:21:53.580Z,1.75
2022-09-05T18:24:35.182Z,1.25
2022-09-05T18:27:37.882Z,1.60
2022-09-05T18:30:10.398Z,1.42
2022-09-05T18:32:41.584Z,1.98
2022-09-05T18:35:36.180Z,1.70
2022-09-05T18:38:19.178Z,1.73
2022-09-05T18:41:12.176Z,1.75
2022-09-05T18:44:12.571Z,1.50
2022-09-05T18:46:44.590Z,1.38
2022-09-05T18:50:25.752Z,1.50
2022-09-05T18:52:22.123Z,1.40
2022-09-05T18:56:11.460Z,1.35
2022-09-05T18:57:52.199Z,1.85
2022-09-05T19:00:45.002Z,1.63
2022-09-05T19:03:24.982Z,1.70
2022-09-05T19:06:36.887Z,1.70
2022-09-05T19:08:52.553Z,1.90
2022-09-05T19:11:29.558Z,1.77
2022-09-05T19:14:26.375Z,1.80
2022-09-05T19:17:03.857Z,1.70
2022-09-05T19:20:33.286Z,1.65
2022-09-05T19:23:10.154Z,1.73
2022-09-05T19:25:43.386Z,1.98
2022-09-05T19:30:28.398Z,2.00
2022-09-05T19:36:54.023Z,1.90
2022-09-05T19:37:03.031Z,1.90
2022-09-05T19:46:05.559Z,1.73
2022-09-05T19:47:30.412Z,1.88
2022-09-05T19:47:50.280Z,2.03
2022-09-05T19:48:26.815Z,1.60
2022-09-05T19:50:56.703Z,1.77
2022-09-05T19:53:26.191Z,1.55
2022-09-05T19:55:55.310Z,2.25
2022-09-05T19:58:24.540Z,1.98
2022-09-05T20:01:06.260Z,2.00
2022-09-05T20:03:41.699Z,2.10
2022-09-05T20:06:24.731Z,2.20
2022-09-05T20:09:10.986Z,1.88
2022-09-05T20:11:45.651Z,1.98
2022-09-05T20:14:24.606Z,2.03
2022-09-05T20:16:57.480Z,1.80
2022-09-05T20:19:32.748Z,1.80
2022-09-05T20:22:18.798Z,2.38
2022-09-05T20:24:55.459Z,1.80
2022-09-05T20:27:28.048Z,1.90
2022-09-05T20:29:59.719Z,1.98
2022-09-05T20:32:39.772Z,2.03
2022-09-05T20:37:36.116Z,1.95
2022-09-05T20:43:22.294Z,2.38
2022-09-05T20:43:22.842Z,2.40
2022-09-05T20:43:58.460Z,2.10
2022-09-05T20:49:00.834Z,2.20
2022-09-05T20:54:09.400Z,1.83
2022-09-05T20:54:20.957Z,1.98
2022-09-05T20:55:40.384Z,2.78
2022-09-05T20:58:13.111Z,2.00
2022-09-05T21:01:15.429Z,1.80
2022-09-05T21:03:38.987Z,2.10
2022-09-05T21:06:20.422Z,2.08
2022-09-05T21:08:49.494Z,2.20
2022-09-05T21:11:18.730Z,2.05
2022-09-05T21:13:53.462Z,2.60
2022-09-05T21:16:28.218Z,2.03
2022-09-05T21:18:56.646Z,1.80
2022-09-05T21:21:30.192Z,2.30
2022-09-05T21:24:15.891Z,2.40
2022-09-05T21:26:51.944Z,2.42
2022-09-05T21:29:27.250Z,2.05
2022-09-05T21:32:01.919Z,2.50
2022-09-05T21:34:34.285Z,2.50
2022-09-05T21:37:07.245Z,2.30
2022-09-05T21:39:58.350Z,2.17
2022-09-05T21:43:28.875Z,2.53
2022-09-05T21:47:42.352Z,2.63
2022-09-05T21:48:15.557Z,2.33
2022-09-05T21:50:48.929Z,2.50
2022-09-05T21:58:55.259Z,2.60
2022-09-05T21:59:13.961Z,2.40
2022-09-05T21:59:27.729Z,2.80
2022-09-05T22:02:05.298Z,2.25
2022-09-05T22:04:41.613Z,2.58
2022-09-05T22:07:26.367Z,2.85
2022-09-05T22:10:05.537Z,2.58
2022-09-05T22:12:35.898Z,3.17
2022-09-05T22:15:26.461Z,3.10
2022-09-05T22:18:17.836Z,2.58
2022-09-05T22:21:33.503Z,3.13
2022-09-05T22:23:44.290Z,2.80
2022-09-05T22:26:16.675Z,2.75
2022-09-05T22:28:48.879Z,3.17
2022-09-05T22:31:17.962Z,2.70
2022-09-05T22:33:50.834Z,3.00
2022-09-05T22:36:20.891Z,3.20
2022-09-05T22:38:49.297Z,3.00
2022-09-05T22:41:24.935Z,2.67
2022-09-05T22:43:59.435Z,2.70
2022-09-05T22:46:28.581Z,3.00
2022-09-05T22:48:57.048Z,3.00
2022-09-05T22:51:26.003Z,3.53
2022-09-05T22:53:54.568Z,3.10
2022-09-05T22:56:32.998Z,3.10
2022-09-05T22:59:02.000Z,3.78
2022-09-05T23:01:30.964Z,4.00
2022-09-05T23:04:00.444Z,3.60
2022-09-05T23:06:28.903Z,3.25
2022-09-05T23:08:58.140Z,3.42
2022-09-05T23:11:26.723Z,5.05
2022-09-05T23:13:57.473Z,4.32
2022-09-05T23:16:25.864Z,3.60
2022-09-05T23:18:55.162Z,3.85
2022-09-05T23:21:24.683Z,4.15
2022-09-05T23:23:53.797Z,3.70
2022-09-05T23:26:22.322Z,3.40
2022-09-05T23:28:51.867Z,4.00
2022-09-05T23:31:21.644Z,3.95
2022-09-05T23:33:51.508Z,4.07
2022-09-05T23:36:19.871Z,4.15
2022-09-05T23:38:49.079Z,3.88
2022-09-05T23:41:17.968Z,3.97
2022-09-05T23:43:47.254Z,4.28
2022-09-05T23:46:16.097Z,4.45
2022-09-05T23:48:46.352Z,5.13
2022-09-05T23:51:14.870Z,4.90
2022-09-05T23:53:44.306Z,5.43
2022-09-05T23:56:12.673Z,5.47
2022-09-05T23:58:41.813Z,4.82
